createdAt,value
2022-08-10T00:00:58.841Z,2.10
2022-08-10T00:01:58.849Z,2.10
2022-08-10T00:02:58.781Z,2.20
2022-08-10T00:03:58.721Z,2.00
2022-08-10T00:04:58.681Z,2.10
2022-08-10T00:05:58.646Z,2.00
2022-08-10T00:06:58.600Z,1.90
2022-08-10T00:07:58.555Z,1.90
2022-08-10T00:08:58.521Z,2.00
2022-08-10T00:09:58.800Z,2.20
2022-08-10T00:10:58.426Z,1.90
2022-08-10T00:11:58.406Z,1.90
2022-08-10T00:12:58.517Z,2.40
2022-08-10T00:13:58.310Z,1.90
2022-08-10T00:14:58.269Z,2.10
2022-08-10T00:15:58.226Z,2.40
2022-08-10T00:16:58.188Z,1.90
2022-08-10T00:17:58.143Z,1.90
2022-08-10T00:18:58.106Z,1.90
2022-08-10T00:20:03.455Z,2.30
2022-08-10T00:20:58.024Z,1.90
2022-08-10T00:21:58.000Z,2.00
2022-08-10T00:22:58.205Z,1.90
2022-08-10T00:23:57.892Z,2.20
2022-08-10T00:24:57.858Z,1.90
2022-08-10T00:25:57.809Z,2.10
2022-08-10T00:27:47.054Z,2.00
2022-08-10T00:28:03.661Z,2.20
2022-08-10T00:28:57.688Z,2.10
2022-08-10T00:29:57.738Z,2.00
2022-08-10T00:30:57.609Z,2.30
2022-08-10T00:31:58.950Z,2.00
2022-08-10T00:32:57.541Z,2.30
2022-08-10T00:33:57.480Z,2.10
2022-08-10T00:34:57.461Z,2.10
2022-08-10T00:35:57.418Z,2.40
2022-08-10T00:36:57.360Z,2.00
2022-08-10T00:37:58.015Z,1.90
2022-08-10T00:38:57.273Z,2.20
2022-08-10T00:39:57.262Z,2.10
2022-08-10T00:40:57.192Z,2.40
2022-08-10T00:42:02.162Z,2.10
2022-08-10T00:42:57.115Z,2.20
2022-08-10T00:43:57.074Z,2.20
2022-08-10T00:44:57.024Z,2.00
2022-08-10T00:45:59.114Z,2.30
2022-08-10T00:46:56.947Z,2.20
2022-08-10T00:47:56.901Z,2.20
2022-08-10T00:49:00.395Z,2.10
2022-08-10T00:49:56.821Z,1.90
2022-08-10T00:50:56.783Z,2.20
2022-08-10T00:51:56.737Z,2.20
2022-08-10T00:52:56.700Z,2.10
2022-08-10T00:53:56.658Z,2.50
2022-08-10T00:54:56.617Z,2.60
2022-08-10T00:57:16.969Z,2.40
2022-08-10T00:57:17.999Z,2.20
2022-08-10T00:57:56.496Z,2.40
2022-08-10T00:58:56.448Z,2.50
2022-08-10T00:59:59.076Z,2.50
2022-08-10T01:00:56.615Z,2.30
2022-08-10T01:02:09.729Z,2.30
2022-08-10T01:02:56.360Z,2.50
2022-08-10T01:04:57.484Z,2.80
2022-08-10T01:05:00.905Z,2.70
2022-08-10T01:05:56.221Z,2.50
2022-08-10T01:06:56.115Z,2.70
2022-08-10T01:07:56.104Z,2.80
2022-08-10T01:08:56.040Z,2.70
2022-08-10T01:09:57.414Z,2.80
2022-08-10T01:10:55.954Z,2.90
2022-08-10T01:12:37.352Z,2.80
2022-08-10T01:12:55.864Z,3.00
2022-08-10T01:13:55.824Z,2.70
2022-08-10T01:14:55.784Z,3.10
2022-08-10T01:15:55.753Z,2.80
2022-08-10T01:16:55.703Z,2.60
2022-08-10T01:17:55.661Z,2.60
2022-08-10T01:18:55.624Z,2.60
2022-08-10T01:19:55.582Z,2.40
2022-08-10T01:20:55.532Z,3.00
2022-08-10T01:21:57.025Z,2.70
2022-08-10T01:22:55.471Z,2.60
2022-08-10T01:23:55.432Z,3.10
2022-08-10T01:24:55.395Z,3.10
2022-08-10T01:26:11.392Z,3.10
2022-08-10T01:26:55.286Z,2.80
2022-08-10T01:27:55.260Z,2.50
2022-08-10T01:28:55.197Z,3.20
2022-08-10T01:29:55.189Z,2.80
2022-08-10T01:30:55.115Z,2.60
2022-08-10T01:31:55.088Z,2.70
2022-08-10T01:32:55.043Z,2.80
2022-08-10T01:33:59.070Z,2.60
2022-08-10T01:34:54.948Z,2.70
2022-08-10T01:35:54.915Z,3.20
2022-08-10T01:36:54.879Z,2.90
2022-08-10T01:37:54.834Z,2.80
2022-08-10T01:38:54.788Z,2.70
2022-08-10T01:39:55.150Z,2.80
2022-08-10T01:40:54.724Z,2.60
2022-08-10T01:41:54.664Z,2.90
2022-08-10T01:42:54.627Z,2.80
2022-08-10T01:43:54.578Z,2.80
2022-08-10T01:44:54.540Z,3.00
2022-08-10T01:45:54.493Z,3.00
2022-08-10T01:46:56.900Z,2.90
2022-08-10T01:47:54.445Z,2.70
2022-08-10T01:48:54.380Z,2.70
2022-08-10T01:49:54.336Z,2.80
2022-08-10T01:51:00.248Z,3.00
2022-08-10T01:51:54.254Z,2.90
2022-08-10T01:52:54.235Z,2.80
2022-08-10T01:53:54.171Z,3.10
2022-08-10T01:54:54.144Z,3.00
2022-08-10T01:55:54.079Z,2.80
2022-08-10T01:56:54.037Z,2.70
2022-08-10T01:57:53.997Z,3.30
2022-08-10T01:58:53.950Z,2.80
2022-08-10T01:59:58.635Z,3.00
2022-08-10T02:00:53.886Z,2.90
2022-08-10T02:01:53.827Z,3.20
2022-08-10T02:02:53.806Z,2.90
2022-08-10T02:04:04.427Z,3.30
2022-08-10T02:04:53.703Z,3.10
2022-08-10T02:05:53.664Z,3.10
2022-08-10T02:06:53.637Z,3.00
2022-08-10T02:07:53.599Z,2.90
2022-08-10T02:08:55.869Z,3.30
2022-08-10T02:09:53.497Z,3.00
2022-08-10T02:10:53.472Z,3.20
2022-08-10T02:12:06.705Z,3.30
2022-08-10T02:12:53.367Z,3.20
2022-08-10T02:13:53.336Z,3.20
2022-08-10T02:14:53.304Z,3.40
2022-08-10T02:16:01.336Z,3.10
2022-08-10T02:16:53.204Z,2.70
2022-08-10T02:17:59.385Z,3.30
2022-08-10T02:18:53.117Z,3.20
2022-08-10T02:19:53.102Z,3.30
2022-08-10T02:20:53.063Z,3.10
2022-08-10T02:22:35.016Z,3.30
2022-08-10T02:22:53.223Z,3.60
2022-08-10T02:23:53.036Z,3.00
2022-08-10T02:24:52.879Z,3.20
2022-08-10T02:25:52.847Z,3.60
2022-08-10T02:26:59.831Z,3.10
2022-08-10T02:27:52.745Z,3.40
2022-08-10T02:28:52.702Z,3.80
2022-08-10T02:29:52.665Z,3.20
2022-08-10T02:30:52.620Z,3.10
2022-08-10T02:31:52.601Z,3.30
2022-08-10T02:32:52.738Z,3.30
2022-08-10T02:33:57.312Z,3.20
2022-08-10T02:34:52.452Z,3.70
2022-08-10T02:35:55.039Z,3.80
2022-08-10T02:36:52.695Z,3.20
2022-08-10T02:37:52.331Z,3.10
2022-08-10T02:38:59.062Z,3.30
2022-08-10T02:39:52.242Z,3.40
2022-08-10T02:45:01.233Z,3.40
2022-08-10T02:45:02.056Z,3.20
2022-08-10T02:45:13.974Z,3.60
2022-08-10T02:45:13.974Z,3.80
2022-08-10T02:45:25.559Z,3.20
2022-08-10T02:45:51.991Z,3.30
2022-08-10T02:46:51.953Z,3.70
2022-08-10T02:47:52.708Z,3.30
2022-08-10T02:48:51.862Z,3.80
2022-08-10T02:49:51.825Z,3.20
2022-08-10T02:50:51.775Z,3.30
2022-08-10T02:52:06.781Z,3.30
2022-08-10T02:52:51.705Z,3.40
2022-08-10T02:53:56.976Z,3.40
2022-08-10T02:54:51.704Z,3.70
2022-08-10T02:55:51.574Z,3.60
2022-08-10T02:56:51.535Z,3.50
2022-08-10T02:58:16.798Z,3.90
2022-08-10T02:58:51.445Z,3.50
2022-08-10T02:59:51.427Z,3.40
2022-08-10T03:00:51.450Z,3.40
2022-08-10T03:01:51.324Z,4.00
2022-08-10T03:02:51.275Z,3.50
2022-08-10T03:03:51.241Z,3.60
2022-08-10T03:04:55.830Z,3.70
2022-08-10T03:05:51.149Z,3.80
2022-08-10T03:06:51.105Z,3.70
2022-08-10T03:07:51.071Z,3.80
2022-08-10T03:08:51.025Z,3.60
2022-08-10T03:09:50.993Z,3.40
2022-08-10T03:10:50.942Z,3.90
2022-08-10T03:12:37.293Z,3.60
2022-08-10T03:12:51.237Z,3.50
2022-08-10T03:13:59.764Z,4.00
2022-08-10T03:14:50.773Z,3.80
2022-08-10T03:15:50.761Z,3.80
2022-08-10T03:16:50.691Z,3.90
2022-08-10T03:17:57.579Z,3.60
2022-08-10T03:18:50.614Z,3.70
2022-08-10T03:20:34.132Z,3.80
2022-08-10T03:20:50.523Z,4.40
2022-08-10T03:21:50.481Z,3.80
2022-08-10T03:22:50.434Z,3.50
2022-08-10T03:23:50.405Z,4.00
2022-08-10T03:24:50.352Z,3.90
2022-08-10T03:25:52.948Z,3.60
2022-08-10T03:26:50.268Z,3.50
2022-08-10T03:27:50.251Z,3.60
2022-08-10T03:28:50.186Z,3.70
2022-08-10T03:30:31.779Z,3.70
2022-08-10T03:30:50.109Z,3.60
2022-08-10T03:32:50.021Z,3.80
2022-08-10T03:33:49.994Z,3.60
2022-08-10T03:34:49.932Z,3.70
2022-08-10T03:36:43.071Z,4.10
2022-08-10T03:36:49.853Z,3.80
2022-08-10T03:37:49.810Z,3.90
2022-08-10T06:19:37.608Z,4.40
2022-08-10T06:20:37.233Z,4.50
2022-08-10T06:21:37.190Z,5.00
2022-08-10T06:22:37.243Z,4.70
2022-08-10T06:23:37.299Z,4.40
2022-08-10T06:24:37.054Z,4.70
2022-08-10T06:26:36.967Z,4.60
2022-08-10T06:27:36.926Z,4.10
2022-08-10T06:28:36.885Z,3.90
2022-08-10T06:29:36.848Z,4.00
2022-08-10T06:30:36.801Z,4.20
2022-08-10T06:31:48.321Z,4.40
2022-08-10T06:32:36.876Z,4.50
2022-08-10T06:33:36.680Z,4.40
2022-08-10T06:34:36.628Z,4.70
2022-08-10T06:35:36.600Z,4.30
2022-08-10T06:36:36.542Z,4.10
2022-08-10T06:37:36.501Z,3.90
2022-08-10T06:38:36.463Z,4.10
2022-08-10T06:39:37.063Z,4.10
2022-08-10T06:40:36.380Z,4.30
2022-08-10T06:42:14.617Z,3.90
2022-08-10T06:42:36.520Z,4.00
2022-08-10T06:43:36.254Z,4.40
2022-08-10T06:44:36.215Z,4.20
2022-08-10T06:45:36.167Z,4.30
2022-08-10T06:46:36.132Z,4.20
2022-08-10T06:47:36.085Z,4.00
2022-08-10T06:48:36.067Z,4.00
2022-08-10T06:49:36.011Z,4.40
2022-08-10T06:50:44.867Z,3.90
2022-08-10T06:51:35.920Z,4.20
2022-08-10T06:52:35.978Z,4.10
2022-08-10T06:53:52.809Z,4.10
2022-08-10T06:54:35.818Z,3.50
2022-08-10T06:55:49.989Z,4.50
2022-08-10T06:56:39.843Z,4.00
2022-08-10T06:57:35.671Z,4.30
2022-08-10T06:58:35.628Z,4.00
2022-08-10T06:59:37.013Z,4.00
2022-08-10T07:00:35.609Z,3.70
2022-08-10T07:01:35.503Z,4.00
2022-08-10T07:02:35.704Z,3.90
2022-08-10T07:03:35.425Z,3.90
2022-08-10T07:04:35.388Z,4.00
2022-08-10T07:05:35.343Z,4.50
2022-08-10T07:06:35.298Z,3.80
2022-08-10T07:08:35.224Z,4.20
2022-08-10T07:09:35.181Z,4.20
2022-08-10T07:10:45.644Z,5.10
2022-08-10T07:11:35.101Z,4.00
2022-08-10T07:12:35.212Z,3.60
2022-08-10T07:14:14.579Z,3.90
2022-08-10T07:14:34.968Z,4.00
2022-08-10T07:16:00.304Z,4.00
2022-08-10T07:16:34.911Z,3.70
2022-08-10T07:17:38.803Z,4.30
2022-08-10T07:18:35.139Z,3.50
2022-08-10T07:19:34.780Z,4.30
2022-08-10T07:20:34.728Z,3.70
2022-08-10T07:21:34.682Z,3.70
2022-08-10T07:23:01.306Z,4.00
2022-08-10T07:23:57.016Z,3.60
2022-08-10T07:24:34.559Z,3.90
2022-08-10T07:25:34.530Z,3.40
2022-08-10T07:26:34.481Z,3.70
2022-08-10T07:27:40.709Z,3.50
2022-08-10T07:28:34.403Z,3.40
2022-08-10T07:29:53.905Z,3.60
2022-08-10T07:30:34.315Z,3.80
2022-08-10T07:31:57.136Z,3.20
2022-08-10T07:32:34.399Z,3.00
2022-08-10T07:33:34.204Z,3.80
2022-08-10T07:34:34.154Z,3.30
2022-08-10T07:35:41.901Z,3.50
2022-08-10T07:36:34.067Z,3.30
2022-08-10T07:37:34.024Z,3.50
2022-08-10T07:38:33.984Z,3.00
2022-08-10T07:40:02.670Z,3.30
2022-08-10T07:40:34.026Z,3.80
2022-08-10T07:41:33.869Z,3.10
2022-08-10T07:42:33.841Z,3.30
2022-08-10T07:43:33.857Z,3.30
2022-08-10T07:44:33.772Z,3.30
2022-08-10T07:45:33.794Z,3.50
2022-08-10T07:46:33.661Z,3.10
2022-08-10T07:47:52.322Z,3.60
2022-08-10T07:48:33.586Z,3.00
2022-08-10T07:49:33.535Z,3.10
2022-08-10T07:50:35.325Z,3.60
2022-08-10T07:51:33.547Z,2.70
2022-08-10T07:52:33.429Z,3.20
2022-08-10T07:53:33.374Z,3.10
2022-08-10T07:54:33.342Z,3.00
2022-08-10T07:56:04.295Z,3.40
2022-08-10T07:56:48.437Z,2.90
2022-08-10T07:57:36.848Z,3.20
2022-08-10T07:58:33.178Z,3.50
2022-08-10T07:59:33.133Z,3.30
2022-08-10T08:00:33.427Z,3.20
2022-08-10T08:01:33.108Z,3.30
2022-08-10T08:02:33.297Z,3.10
2022-08-10T08:03:32.973Z,3.80
2022-08-10T08:04:32.939Z,3.10
2022-08-10T08:05:58.485Z,2.70
2022-08-10T08:34:50.278Z,2.70
2022-08-10T08:35:50.213Z,3.00
2022-08-10T08:36:50.174Z,2.90
2022-08-10T08:38:32.408Z,3.20
2022-08-10T08:38:50.155Z,3.20
2022-08-10T08:39:50.176Z,2.80
2022-08-10T08:46:28.292Z,3.20
2022-08-10T08:48:04.536Z,3.30
2022-08-10T08:48:29.019Z,2.50
2022-08-10T08:50:41.621Z,2.90
2022-08-10T08:52:09.736Z,2.90
2022-08-10T08:56:06.964Z,2.90
2022-08-10T09:00:14.828Z,2.90
2022-08-10T09:11:18.255Z,3.20
2022-08-10T09:13:26.639Z,2.50
2022-08-10T09:15:41.494Z,3.00
2022-08-10T09:16:39.973Z,3.00
2022-08-10T09:17:39.934Z,3.00
2022-08-10T09:18:39.900Z,2.90
2022-08-10T09:22:36.691Z,3.00
2022-08-10T09:24:05.400Z,2.90
2022-08-10T09:25:29.838Z,2.70
2022-08-10T09:26:30.198Z,2.80
2022-08-10T09:27:29.756Z,3.10
2022-08-10T09:28:29.715Z,3.30
2022-08-10T09:29:29.677Z,3.20
2022-08-10T09:30:31.595Z,3.10
2022-08-10T09:31:29.625Z,2.70
2022-08-10T09:36:15.121Z,3.10
2022-08-10T09:36:21.415Z,3.00
2022-08-10T09:36:24.060Z,2.90
2022-08-10T09:36:25.146Z,2.90
2022-08-10T09:36:32.289Z,2.70
2022-08-10T09:38:29.337Z,2.90
2022-08-10T09:40:56.202Z,3.10
2022-08-10T09:41:00.723Z,2.80
2022-08-10T09:41:29.252Z,2.90
2022-08-10T09:43:25.624Z,2.70
2022-08-10T09:44:12.526Z,2.80
2022-08-10T09:45:12.484Z,3.00
2022-08-10T09:46:12.444Z,2.90
2022-08-10T09:47:12.411Z,3.00
2022-08-10T09:48:12.371Z,2.80
2022-08-10T09:49:12.331Z,2.80
2022-08-10T09:50:12.291Z,2.80
2022-08-10T09:51:44.948Z,2.60
2022-08-10T10:00:32.267Z,2.50
2022-08-10T10:02:02.750Z,2.50
2022-08-10T10:02:31.826Z,2.90
2022-08-10T10:03:31.831Z,2.60
2022-08-10T10:04:31.768Z,2.50
2022-08-10T10:05:31.709Z,3.30
2022-08-10T10:06:31.677Z,3.20
2022-08-10T10:07:31.643Z,3.10
2022-08-10T10:08:31.605Z,2.80
2022-08-10T10:09:31.764Z,2.70
2022-08-10T10:10:31.526Z,3.10
2022-08-10T10:11:31.483Z,2.60
2022-08-10T10:12:31.449Z,2.60
2022-08-10T10:13:50.618Z,2.60
2022-08-10T10:14:31.377Z,3.10
2022-08-10T10:15:31.338Z,2.70
2022-08-10T10:16:31.619Z,2.70
2022-08-10T10:17:31.256Z,2.70
2022-08-10T10:19:31.186Z,3.00
2022-08-10T10:21:55.340Z,2.90
2022-08-10T10:22:31.068Z,2.60
2022-08-10T10:23:31.025Z,2.90
2022-08-10T10:24:30.988Z,2.60
2022-08-10T10:25:50.139Z,2.80
2022-08-10T10:26:30.916Z,2.90
2022-08-10T10:27:30.896Z,2.60
2022-08-10T10:28:57.477Z,2.90
2022-08-10T10:29:57.264Z,2.50
2022-08-10T10:30:30.794Z,2.70
2022-08-10T10:31:30.731Z,2.80
2022-08-10T10:32:32.117Z,2.70
2022-08-10T10:33:30.677Z,2.70
2022-08-10T10:34:30.628Z,3.00
2022-08-10T10:35:30.573Z,2.60
2022-08-10T10:36:30.578Z,3.00
2022-08-10T10:38:30.463Z,2.40
2022-08-10T10:39:30.529Z,2.60
2022-08-10T10:40:30.399Z,2.80
2022-08-10T10:41:30.368Z,2.70
2022-08-10T10:42:44.714Z,2.90
2022-08-10T10:43:30.302Z,3.00
2022-08-10T10:44:30.667Z,2.20
2022-08-10T10:45:30.204Z,2.90
2022-08-10T10:46:30.172Z,3.00
2022-08-10T10:47:30.166Z,3.00
2022-08-10T10:48:30.100Z,2.80
2022-08-10T10:49:30.063Z,2.80
2022-08-10T10:51:30.000Z,2.80
2022-08-10T10:52:29.948Z,2.70
2022-08-10T10:53:29.925Z,2.70
2022-08-10T10:54:29.874Z,3.10
2022-08-10T10:55:29.830Z,3.30
2022-08-10T10:56:29.804Z,2.90
2022-08-10T10:57:59.534Z,3.20
2022-08-10T10:58:29.733Z,2.70
2022-08-10T10:59:56.437Z,2.70
2022-08-10T11:00:29.670Z,2.90
2022-08-10T11:01:29.649Z,2.90
2022-08-10T11:02:29.578Z,2.70
2022-08-10T11:03:29.539Z,2.90
2022-08-10T11:04:29.503Z,3.30
2022-08-10T11:05:29.693Z,3.10
2022-08-10T11:06:39.735Z,3.10
2022-08-10T11:07:37.548Z,3.10
2022-08-10T11:08:29.731Z,3.10
2022-08-10T11:10:05.306Z,2.80
2022-08-10T11:10:33.170Z,3.00
2022-08-10T11:12:01.957Z,3.20
2022-08-10T11:12:29.210Z,2.80
2022-08-10T11:14:27.629Z,3.30
2022-08-10T11:14:29.764Z,3.00
2022-08-10T11:16:29.062Z,3.20
2022-08-10T11:17:29.025Z,3.00
2022-08-10T11:20:02.899Z,3.30
2022-08-10T11:21:28.894Z,2.90
2022-08-10T11:22:28.856Z,2.90
2022-08-10T11:23:28.809Z,2.90
2022-08-10T11:50:02.419Z,6.90
2022-08-10T11:51:02.376Z,8.00
2022-08-10T11:52:02.341Z,8.30
2022-08-10T11:53:45.689Z,6.70
2022-08-10T11:54:45.649Z,4.50
2022-08-10T11:55:45.616Z,10.10
2022-08-10T11:56:45.577Z,9.10
2022-08-10T11:57:54.250Z,11.10
2022-08-10T11:58:45.504Z,10.70
2022-08-10T11:59:45.467Z,8.80
2022-08-10T12:00:45.430Z,10.60
2022-08-10T12:01:45.414Z,10.80
2022-08-10T12:02:45.420Z,8.50
2022-08-10T12:03:45.329Z,10.70
2022-08-10T12:04:45.292Z,11.80
2022-08-10T12:05:53.838Z,14.50
2022-08-10T12:10:02.499Z,12.50
2022-08-10T12:10:05.510Z,8.70
2022-08-10T12:10:09.881Z,13.00
2022-08-10T12:10:45.072Z,10.60
2022-08-10T12:11:45.039Z,11.60
2022-08-10T12:12:45.000Z,10.30
2022-08-10T12:14:04.430Z,14.60
2022-08-10T12:14:44.928Z,14.60
2022-08-10T12:15:44.895Z,14.50
2022-08-10T12:16:44.855Z,18.10
2022-08-10T12:17:44.820Z,17.70
2022-08-10T12:18:44.782Z,15.50
2022-08-10T12:19:59.693Z,12.90
2022-08-10T12:20:44.711Z,16.10
2022-08-10T12:21:44.677Z,12.60
2022-08-10T12:22:44.639Z,17.90
2022-08-10T12:23:44.602Z,18.40
2022-08-10T12:24:44.566Z,12.40
2022-08-10T12:25:56.721Z,16.10
2022-08-10T12:26:44.493Z,15.50
2022-08-10T12:27:44.460Z,14.70
2022-08-10T12:28:50.750Z,18.50
2022-08-10T12:29:44.389Z,17.40
2022-08-10T12:30:44.349Z,22.60
2022-08-10T12:31:44.337Z,18.80
2022-08-10T12:32:44.363Z,18.10
2022-08-10T12:34:02.173Z,15.60
2022-08-10T12:34:48.627Z,17.70
2022-08-10T12:36:01.822Z,22.50
2022-08-10T12:36:44.158Z,19.60
2022-08-10T12:37:44.108Z,18.70
2022-08-10T12:40:24.014Z,23.80
2022-08-10T12:41:00.107Z,27.60
2022-08-10T12:43:02.438Z,27.60
2022-08-10T12:45:06.479Z,21.80
2022-08-10T12:47:13.938Z,27.30
2022-08-10T12:48:54.786Z,27.90
2022-08-10T12:50:30.967Z,34.20
2022-08-10T12:53:04.844Z,25.50
2022-08-10T12:54:54.559Z,36.90
2022-08-10T12:55:54.528Z,30.80
2022-08-10T12:56:54.695Z,30.80
2022-08-10T12:59:02.883Z,39.50
2022-08-10T13:00:02.984Z,41.20
2022-08-10T13:01:17.576Z,30.60
2022-08-10T13:18:46.272Z,34.60
2022-08-10T13:19:54.614Z,38.10
2022-08-10T13:20:45.956Z,28.80
2022-08-10T13:21:45.917Z,34.60
2022-08-10T13:22:45.685Z,32.60
2022-08-10T13:32:45.488Z,25.90
2022-08-10T13:34:40.943Z,22.70
2022-08-10T13:46:44.710Z,6.20
2022-08-10T13:47:49.007Z,6.60
2022-08-10T13:48:44.573Z,5.10
2022-08-10T13:49:44.523Z,5.10
2022-08-10T13:50:44.707Z,5.90
2022-08-10T13:51:56.636Z,5.90
2022-08-10T13:52:44.441Z,5.80
2022-08-10T13:53:44.375Z,3.60
2022-08-10T13:54:44.355Z,3.90
2022-08-10T13:55:48.750Z,4.70
2022-08-10T13:56:44.260Z,4.20
2022-08-10T13:57:47.591Z,4.20
2022-08-10T13:58:44.213Z,5.80
2022-08-10T14:00:37.629Z,3.20
2022-08-10T14:00:44.137Z,3.70
2022-08-10T14:01:44.168Z,2.80
2022-08-10T14:02:44.046Z,3.40
2022-08-10T14:03:44.043Z,3.70
2022-08-10T14:04:43.976Z,3.30
2022-08-10T14:05:44.261Z,2.60
2022-08-10T14:06:43.901Z,2.60
2022-08-10T14:08:00.334Z,2.10
2022-08-10T14:08:43.848Z,2.30
2022-08-10T14:09:43.816Z,2.40
2022-08-10T14:11:02.275Z,2.80
2022-08-10T14:11:43.713Z,2.60
2022-08-10T14:12:43.940Z,2.50
2022-08-10T14:13:43.970Z,2.80
2022-08-10T14:14:43.602Z,2.70
2022-08-10T14:15:43.897Z,3.30
2022-08-10T14:16:43.534Z,2.30
2022-08-10T14:17:45.045Z,2.60
2022-08-10T14:18:43.475Z,2.40
2022-08-10T14:19:43.822Z,2.20
2022-08-10T14:20:43.379Z,2.80
2022-08-10T14:21:43.360Z,2.30
2022-08-10T14:22:43.438Z,2.30
2022-08-10T14:23:48.512Z,2.40
2022-08-10T14:24:43.253Z,2.40
2022-08-10T14:25:43.195Z,2.00
2022-08-10T14:26:43.184Z,2.30
2022-08-10T14:28:02.975Z,2.50
2022-08-10T14:28:43.079Z,2.20
2022-08-10T14:29:43.060Z,2.20
2022-08-10T14:30:43.008Z,2.20
2022-08-10T14:32:01.677Z,2.20
2022-08-10T14:32:42.960Z,2.00
2022-08-10T14:33:42.917Z,2.20
2022-08-10T14:36:17.454Z,1.90
2022-08-10T14:36:23.296Z,2.00
2022-08-10T14:36:43.116Z,2.10
2022-08-10T14:37:43.122Z,1.90
2022-08-10T14:38:42.717Z,1.80
2022-08-10T14:39:42.825Z,2.30
2022-08-10T14:40:42.642Z,2.00
2022-08-10T14:42:02.717Z,2.50
2022-08-10T14:42:42.592Z,1.80
2022-08-10T14:43:42.549Z,2.30
2022-08-10T14:44:42.485Z,2.20
2022-08-10T14:45:42.496Z,1.70
2022-08-10T14:46:42.454Z,2.00
2022-08-10T14:47:53.064Z,2.10
2022-08-10T14:48:42.690Z,1.60
2022-08-10T14:49:58.139Z,1.80
2022-08-10T14:51:44.284Z,2.00
2022-08-10T14:52:44.152Z,2.20
2022-08-10T14:53:42.169Z,1.90
2022-08-10T14:54:42.133Z,2.00
2022-08-10T14:55:58.699Z,1.90
2022-08-10T14:56:42.372Z,2.00
2022-08-10T14:58:17.059Z,1.90
2022-08-10T14:58:59.004Z,2.00
2022-08-10T15:00:21.016Z,1.70
2022-08-10T15:00:43.057Z,1.70
2022-08-10T15:02:38.307Z,2.00
2022-08-10T15:02:53.178Z,2.20
2022-08-10T15:03:59.145Z,1.90
2022-08-10T15:04:41.736Z,1.90
2022-08-10T15:05:41.961Z,1.90
2022-08-10T15:06:41.880Z,2.10
2022-08-10T15:07:41.620Z,1.90
2022-08-10T15:08:41.617Z,2.20
2022-08-10T15:10:01.529Z,2.50
2022-08-10T15:10:41.538Z,2.20
2022-08-10T15:12:13.274Z,2.20
2022-08-10T15:12:41.446Z,1.70
2022-08-10T15:13:41.416Z,2.20
2022-08-10T15:14:44.769Z,2.10
2022-08-10T15:16:09.376Z,2.30
2022-08-10T15:16:41.291Z,2.10
2022-08-10T15:17:41.559Z,2.10
2022-08-10T15:18:41.232Z,1.90
2022-08-10T15:20:41.158Z,2.10
2022-08-10T15:21:42.701Z,2.30
2022-08-10T15:22:41.083Z,2.00
2022-08-10T15:24:40.983Z,2.30
2022-08-10T15:25:40.956Z,2.20
2022-08-10T15:26:40.955Z,2.00
2022-08-10T15:27:53.460Z,2.00
2022-08-10T15:29:22.247Z,2.20
2022-08-10T15:30:41.375Z,1.70
2022-08-10T15:31:41.067Z,2.00
2022-08-10T15:32:40.691Z,2.20
2022-08-10T15:33:57.830Z,2.30
2022-08-10T15:36:40.568Z,2.60
2022-08-10T15:37:41.436Z,2.20
2022-08-10T15:38:40.480Z,2.60
2022-08-10T15:40:25.914Z,2.80
2022-08-10T15:40:49.644Z,2.80
2022-08-10T15:41:58.077Z,2.60
2022-08-10T15:42:40.315Z,2.60
2022-08-10T15:43:44.641Z,2.60
2022-08-10T15:45:40.215Z,2.00
2022-08-10T15:47:45.012Z,3.50
2022-08-10T15:48:40.089Z,3.00
2022-08-10T15:49:45.089Z,2.70
2022-08-10T15:50:40.799Z,2.90
2022-08-10T15:51:53.823Z,2.80
2022-08-10T15:53:49.196Z,2.80
2022-08-10T15:54:39.892Z,2.40
2022-08-10T15:56:39.784Z,2.70
2022-08-10T15:57:39.749Z,2.90
2022-08-10T15:58:40.773Z,2.80
2022-08-10T15:59:39.699Z,3.10
2022-08-10T16:00:39.655Z,3.00
2022-08-10T16:02:14.856Z,3.10
2022-08-10T16:02:39.626Z,2.40
2022-08-10T16:03:39.530Z,2.80
2022-08-10T16:04:39.502Z,2.80
2022-08-10T16:05:40.807Z,3.00
2022-08-10T16:06:39.409Z,2.50
2022-08-10T16:08:55.712Z,3.00
2022-08-10T16:10:24.841Z,3.10
2022-08-10T16:10:39.339Z,3.20
2022-08-10T16:11:39.253Z,2.90
2022-08-10T16:12:39.222Z,3.00
2022-08-10T16:13:59.942Z,2.70
2022-08-10T16:14:39.120Z,2.30
2022-08-10T16:15:39.078Z,2.50
2022-08-10T16:16:39.056Z,2.80
2022-08-10T16:17:54.827Z,2.60
2022-08-10T16:18:38.974Z,2.80
2022-08-10T16:19:38.951Z,2.40
2022-08-10T16:20:53.237Z,2.60
2022-08-10T16:21:38.866Z,2.80
2022-08-10T16:22:38.863Z,2.30
2022-08-10T16:23:38.804Z,2.60
2022-08-10T16:24:38.755Z,2.20
2022-08-10T16:25:48.167Z,2.20
2022-08-10T16:27:38.962Z,2.60
2022-08-10T16:28:38.619Z,2.10
2022-08-10T16:29:55.695Z,1.70
2022-08-10T16:30:38.845Z,2.30
2022-08-10T16:31:38.511Z,2.50
2022-08-10T16:32:38.449Z,2.20
2022-08-10T16:33:53.815Z,2.20
2022-08-10T16:35:38.335Z,2.30
2022-08-10T16:36:38.319Z,2.10
2022-08-10T16:37:57.027Z,2.50
2022-08-10T16:38:38.223Z,2.60
2022-08-10T16:39:58.837Z,2.90
2022-08-10T16:40:38.210Z,2.40
2022-08-10T16:42:03.714Z,2.60
2022-08-10T16:42:43.003Z,2.40
2022-08-10T16:43:38.248Z,2.80
2022-08-10T16:44:38.003Z,2.60
2022-08-10T16:45:37.989Z,4.30
2022-08-10T16:46:37.935Z,3.10
2022-08-10T16:47:38.043Z,3.00
2022-08-10T16:48:50.245Z,3.00
2022-08-10T16:50:38.006Z,4.20
2022-08-10T16:51:37.751Z,3.20
2022-08-10T16:53:37.676Z,3.00
2022-08-10T16:54:37.641Z,3.00
2022-08-10T16:55:48.342Z,3.40
2022-08-10T16:56:48.561Z,3.80
2022-08-10T16:57:37.749Z,3.90
2022-08-10T17:00:22.536Z,4.50
2022-08-10T17:01:21.865Z,3.40
2022-08-10T17:06:11.170Z,4.20
2022-08-10T17:07:18.378Z,3.60
2022-08-10T17:09:04.356Z,4.70
2022-08-10T17:10:45.096Z,7.20
2022-08-10T17:11:45.066Z,6.20
2022-08-10T17:12:45.034Z,6.10
2022-08-10T17:13:45.006Z,6.90
2022-08-10T17:14:44.974Z,7.00
2022-08-10T17:15:44.939Z,5.40
2022-08-10T17:16:44.910Z,6.00
2022-08-10T17:17:44.878Z,6.80
2022-08-10T17:18:46.787Z,5.80
2022-08-10T17:19:44.820Z,6.70
2022-08-10T17:20:44.790Z,6.70
2022-08-10T17:21:51.806Z,14.50
2022-08-10T17:22:44.727Z,7.10
2022-08-10T17:23:44.694Z,8.80
2022-08-10T17:24:44.667Z,8.00
2022-08-10T17:25:48.381Z,7.60
2022-08-10T17:26:44.600Z,6.90
2022-08-10T17:28:24.395Z,5.90
2022-08-10T17:28:44.536Z,4.70
2022-08-10T17:29:57.817Z,5.60
2022-08-10T17:31:53.305Z,4.40
2022-08-10T17:32:27.827Z,3.70
2022-08-10T17:33:27.797Z,4.10
2022-08-10T17:34:27.761Z,5.80
2022-08-10T17:35:27.725Z,4.20
2022-08-10T17:36:27.691Z,3.90
2022-08-10T17:37:27.713Z,3.10
2022-08-10T17:38:27.623Z,4.40
2022-08-10T17:39:27.621Z,5.30
2022-08-10T17:40:27.550Z,2.60
2022-08-10T17:41:27.517Z,2.50
2022-08-10T17:42:27.478Z,2.90
2022-08-10T17:43:58.515Z,3.00
2022-08-10T17:44:27.461Z,2.40
2022-08-10T17:46:11.972Z,3.00
2022-08-10T17:47:11.679Z,3.00
2022-08-10T17:49:32.983Z,2.80
2022-08-10T17:50:29.115Z,2.70
2022-08-10T17:54:41.865Z,2.60
2022-08-10T17:55:41.810Z,2.80
2022-08-10T17:56:41.905Z,2.00
2022-08-10T17:57:41.809Z,2.70
2022-08-10T17:58:42.057Z,2.10
2022-08-10T17:59:41.910Z,2.30
2022-08-10T18:00:41.632Z,2.20
2022-08-10T18:01:58.537Z,2.20
2022-08-10T18:02:42.127Z,2.00
2022-08-10T18:03:41.520Z,2.50
2022-08-10T18:04:42.718Z,1.80
2022-08-10T18:05:41.457Z,1.90
2022-08-10T18:06:41.412Z,2.10
2022-08-10T18:07:41.948Z,2.30
2022-08-10T18:08:42.302Z,2.30
2022-08-10T18:09:41.391Z,2.10
2022-08-10T18:10:41.687Z,2.00
2022-08-10T18:11:41.644Z,3.80
2022-08-10T18:12:41.201Z,4.50
2022-08-10T18:13:55.387Z,4.20
2022-08-10T18:18:47.866Z,2.80
2022-08-10T18:19:47.824Z,2.80
2022-08-10T18:20:47.788Z,3.00
2022-08-10T18:21:47.754Z,2.70
2022-08-10T18:22:47.714Z,2.90
2022-08-10T18:23:52.755Z,2.70
2022-08-10T18:24:47.639Z,2.50
2022-08-10T18:25:47.597Z,2.80
2022-08-10T18:26:47.565Z,2.30
2022-08-10T18:30:14.139Z,2.30
2022-08-10T18:31:14.100Z,2.10
2022-08-10T18:32:14.083Z,2.00
2022-08-10T18:33:14.034Z,2.50
2022-08-10T18:34:13.992Z,2.20
2022-08-10T18:35:13.978Z,1.90
2022-08-10T18:36:13.911Z,2.10
2022-08-10T18:37:18.068Z,2.30
2022-08-10T18:38:13.839Z,2.20
2022-08-10T18:39:13.852Z,2.00
2022-08-10T18:40:13.758Z,1.90
2022-08-10T18:41:13.719Z,2.00
2022-08-10T18:42:13.685Z,1.80
2022-08-10T18:44:05.546Z,2.00
2022-08-10T18:44:13.733Z,2.10
2022-08-10T18:45:13.594Z,2.00
2022-08-10T18:46:13.530Z,2.10
2022-08-10T18:47:13.817Z,2.30
2022-08-10T18:48:13.476Z,2.20
2022-08-10T18:49:13.703Z,2.10
2022-08-10T18:50:13.412Z,2.20
2022-08-10T18:51:13.505Z,2.10
2022-08-10T18:52:13.465Z,2.00
2022-08-10T18:53:13.283Z,2.30
2022-08-10T18:54:39.862Z,1.90
2022-08-10T18:55:14.287Z,1.80
2022-08-10T18:57:13.498Z,2.10
2022-08-10T18:58:13.072Z,1.90
2022-08-10T18:59:13.282Z,2.40
2022-08-10T19:00:13.482Z,1.90
2022-08-10T19:01:13.313Z,2.20
2022-08-10T19:02:13.136Z,2.00
2022-08-10T19:03:12.906Z,1.90
2022-08-10T19:04:12.968Z,2.00
2022-08-10T19:05:31.635Z,2.20